Highland Hills, Ohio
Current Conditions -  °F | °C
As of 11:53 PM on Friday 28 Nov 2014 (Local Time) from KBKL Reporting Station
Overcast Overcast  
Wind Chill: 21°   Ceiling: 7000
Heat Index: 30°   Visibility: 10mi
Dew Point: 19°   Wind: 12mph
Humidity: 64%   Direction: 150°SSE
Pressure: 30.13"   Gusts: NA
Location:  41.4368°N, 81.5396°W
Report Text: KBKL 290453Z AUTO 15010KT 10SM OVC070 M01/M07 A3013 RMK AO2 SLP209 T10111072 410061044
Loading
Personal Weather Stations






























Interactive Weather Map New forecast layout! Learn more

10-Day Weather Forecast

Advertisements
Track Severe Weather on mobile